sensor_id;sensor_type;location;lat;lon;timestamp;P1;durP1;ratioP1;P2;durP2;ratioP2
1765;SDS011;880;52.452;8.656;2022-12-05T00:04:11;65.97;;;33.53;;
1765;SDS011;880;52.452;8.656;2022-12-05T00:06:40;74.33;;;36.33;;
1765;SDS011;880;52.452;8.656;2022-12-05T00:09:09;77.47;;;38.30;;
1765;SDS011;880;52.452;8.656;2022-12-05T00:11:38;77.20;;;34.53;;
1765;SDS011;880;52.452;8.656;2022-12-05T00:14:08;68.27;;;36.43;;
1765;SDS011;880;52.452;8.656;2022-12-05T00:16:38;67.47;;;35.30;;
1765;SDS011;880;52.452;8.656;2022-12-05T00:19:10;67.80;;;36.47;;
1765;SDS011;880;52.452;8.656;2022-12-05T00:21:40;65.33;;;33.07;;
1765;SDS011;880;52.452;8.656;2022-12-05T00:24:09;71.00;;;37.07;;
1765;SDS011;880;52.452;8.656;2022-12-05T00:26:40;72.43;;;38.57;;
1765;SDS011;880;52.452;8.656;2022-12-05T00:29:08;74.73;;;36.93;;
1765;SDS011;880;52.452;8.656;2022-12-05T00:31:35;62.03;;;33.60;;
1765;SDS011;880;52.452;8.656;2022-12-05T00:34:02;67.23;;;36.43;;
1765;SDS011;880;52.452;8.656;2022-12-05T00:36:31;77.00;;;36.87;;
1765;SDS011;880;52.452;8.656;2022-12-05T00:39:02;65.87;;;33.90;;
1765;SDS011;880;52.452;8.656;2022-12-05T00:41:35;64.07;;;33.60;;
1765;SDS011;880;52.452;8.656;2022-12-05T00:44:03;64.80;;;34.00;;
1765;SDS011;880;52.452;8.656;2022-12-05T00:46:31;65.53;;;35.40;;
1765;SDS011;880;52.452;8.656;2022-12-05T00:49:00;68.17;;;35.30;;
1765;SDS011;880;52.452;8.656;2022-12-05T00:51:30;74.60;;;38.10;;
1765;SDS011;880;52.452;8.656;2022-12-05T00:54:07;72.97;;;37.60;;
1765;SDS011;880;52.452;8.656;2022-12-05T00:56:37;71.10;;;36.13;;
1765;SDS011;880;52.452;8.656;2022-12-05T00:59:04;70.33;;;35.00;;
1765;SDS011;880;52.452;8.656;2022-12-05T01:01:36;70.03;;;34.53;;
1765;SDS011;880;52.452;8.656;2022-12-05T01:04:08;69.23;;;33.30;;
1765;SDS011;880;52.452;8.656;2022-12-05T01:06:56;67.33;;;34.10;;
1765;SDS011;880;52.452;8.656;2022-12-05T01:09:23;67.73;;;35.47;;
1765;SDS011;880;52.452;8.656;2022-12-05T01:11:52;70.17;;;34.80;;
1765;SDS011;880;52.452;8.656;2022-12-05T01:14:19;76.50;;;34.87;;
1765;SDS011;880;52.452;8.656;2022-12-05T01:16:51;63.73;;;33.83;;
1765;SDS011;880;52.452;8.656;2022-12-05T01:19:21;76.33;;;36.70;;
1765;SDS011;880;52.452;8.656;2022-12-05T01:21:52;65.53;;;32.87;;
1765;SDS011;880;52.452;8.656;2022-12-05T01:24:21;66.30;;;35.90;;
1765;SDS011;880;52.452;8.656;2022-12-05T01:26:49;62.80;;;33.27;;
1765;SDS011;880;52.452;8.656;2022-12-05T01:29:17;66.23;;;34.17;;
1765;SDS011;880;52.452;8.656;2022-12-05T01:31:47;58.20;;;32.90;;
1765;SDS011;880;52.452;8.656;2022-12-05T01:34:15;62.33;;;33.30;;
1765;SDS011;880;52.452;8.656;2022-12-05T01:36:44;71.23;;;33.33;;
1765;SDS011;880;52.452;8.656;2022-12-05T01:39:11;69.17;;;34.33;;
1765;SDS011;880;52.452;8.656;2022-12-05T01:41:40;66.67;;;33.87;;
1765;SDS011;880;52.452;8.656;2022-12-05T01:46:58;64.30;;;32.40;;
1765;SDS011;880;52.452;8.656;2022-12-05T01:49:35;66.40;;;35.53;;
1765;SDS011;880;52.452;8.656;2022-12-05T01:52:16;63.60;;;32.90;;
1765;SDS011;880;52.452;8.656;2022-12-05T01:54:47;65.00;;;32.70;;
1765;SDS011;880;52.452;8.656;2022-12-05T01:57:19;52.63;;;31.90;;
1765;SDS011;880;52.452;8.656;2022-12-05T01:59:49;65.53;;;30.47;;
1765;SDS011;880;52.452;8.656;2022-12-05T02:02:20;66.83;;;34.20;;
1765;SDS011;880;52.452;8.656;2022-12-05T02:04:59;61.90;;;33.73;;
1765;SDS011;880;52.452;8.656;2022-12-05T02:07:43;61.47;;;30.73;;
1765;SDS011;880;52.452;8.656;2022-12-05T02:10:12;57.90;;;33.20;;
1765;SDS011;880;52.452;8.656;2022-12-05T02:12:40;57.30;;;31.50;;
1765;SDS011;880;52.452;8.656;2022-12-05T02:15:15;59.30;;;31.40;;
1765;SDS011;880;52.452;8.656;2022-12-05T02:24:06;58.90;;;30.30;;
1765;SDS011;880;52.452;8.656;2022-12-05T02:27:16;52.20;;;28.83;;
1765;SDS011;880;52.452;8.656;2022-12-05T02:30:26;55.67;;;30.60;;
1765;SDS011;880;52.452;8.656;2022-12-05T02:33:22;55.40;;;29.60;;
1765;SDS011;880;52.452;8.656;2022-12-05T02:36:10;54.73;;;31.27;;
1765;SDS011;880;52.452;8.656;2022-12-05T02:38:58;59.00;;;30.40;;
1765;SDS011;880;52.452;8.656;2022-12-05T02:41:40;51.43;;;28.43;;
1765;SDS011;880;52.452;8.656;2022-12-05T02:44:45;52.97;;;29.70;;
1765;SDS011;880;52.452;8.656;2022-12-05T02:47:25;47.70;;;29.53;;
1765;SDS011;880;52.452;8.656;2022-12-05T02:49:56;55.40;;;28.40;;
1765;SDS011;880;52.452;8.656;2022-12-05T02:52:25;52.40;;;29.53;;
1765;SDS011;880;52.452;8.656;2022-12-05T02:54:54;57.93;;;29.53;;
1765;SDS011;880;52.452;8.656;2022-12-05T02:57:22;57.30;;;29.90;;
1765;SDS011;880;52.452;8.656;2022-12-05T02:59:52;56.20;;;30.17;;
1765;SDS011;880;52.452;8.656;2022-12-05T03:02:22;51.53;;;28.87;;
1765;SDS011;880;52.452;8.656;2022-12-05T03:05:16;47.77;;;27.77;;
1765;SDS011;880;52.452;8.656;2022-12-05T03:08:09;51.33;;;28.00;;
1765;SDS011;880;52.452;8.656;2022-12-05T03:10:42;53.40;;;28.13;;
1765;SDS011;880;52.452;8.656;2022-12-05T03:13:20;54.43;;;29.13;;
1765;SDS011;880;52.452;8.656;2022-12-05T03:16:31;59.53;;;29.47;;
1765;SDS011;880;52.452;8.656;2022-12-05T03:19:11;47.60;;;26.67;;
1765;SDS011;880;52.452;8.656;2022-12-05T03:21:48;64.77;;;29.20;;
1765;SDS011;880;52.452;8.656;2022-12-05T03:24:21;48.07;;;29.13;;
1765;SDS011;880;52.452;8.656;2022-12-05T03:32:24;47.70;;;28.03;;
1765;SDS011;880;52.452;8.656;2022-12-05T03:37:57;48.80;;;27.23;;
1765;SDS011;880;52.452;8.656;2022-12-05T03:43:51;48.23;;;27.70;;
1765;SDS011;880;52.452;8.656;2022-12-05T03:46:30;49.63;;;29.07;;
1765;SDS011;880;52.452;8.656;2022-12-05T03:49:19;50.57;;;29.10;;
1765;SDS011;880;52.452;8.656;2022-12-05T03:52:10;52.70;;;28.90;;
1765;SDS011;880;52.452;8.656;2022-12-05T03:54:56;49.67;;;28.27;;
1765;SDS011;880;52.452;8.656;2022-12-05T03:57:33;46.37;;;27.37;;
1765;SDS011;880;52.452;8.656;2022-12-05T04:00:16;49.17;;;28.07;;
1765;SDS011;880;52.452;8.656;2022-12-05T04:02:48;48.13;;;28.77;;
1765;SDS011;880;52.452;8.656;2022-12-05T04:05:23;48.63;;;25.93;;
1765;SDS011;880;52.452;8.656;2022-12-05T04:07:57;51.77;;;27.83;;
1765;SDS011;880;52.452;8.656;2022-12-05T04:10:36;46.93;;;27.27;;
1765;SDS011;880;52.452;8.656;2022-12-05T04:13:58;56.93;;;28.03;;
1765;SDS011;880;52.452;8.656;2022-12-05T04:16:18;46.07;;;26.80;;
1765;SDS011;880;52.452;8.656;2022-12-05T04:21:51;46.03;;;26.10;;
1765;SDS011;880;52.452;8.656;2022-12-05T04:24:25;45.30;;;27.90;;
1765;SDS011;880;52.452;8.656;2022-12-05T04:30:31;56.80;;;31.73;;
1765;SDS011;880;52.452;8.656;2022-12-05T04:38:50;50.67;;;27.70;;
1765;SDS011;880;52.452;8.656;2022-12-05T04:41:35;46.73;;;26.77;;
1765;SDS011;880;52.452;8.656;2022-12-05T04:44:07;47.17;;;28.37;;
1765;SDS011;880;52.452;8.656;2022-12-05T04:46:39;45.70;;;26.67;;
1765;SDS011;880;52.452;8.656;2022-12-05T04:49:09;45.73;;;27.00;;
1765;SDS011;880;52.452;8.656;2022-12-05T04:51:42;44.97;;;26.23;;
1765;SDS011;880;52.452;8.656;2022-12-05T04:54:14;48.73;;;27.83;;
1765;SDS011;880;52.452;8.656;2022-12-05T04:56:47;41.30;;;24.03;;
1765;SDS011;880;52.452;8.656;2022-12-05T04:59:26;47.93;;;26.80;;
1765;SDS011;880;52.452;8.656;2022-12-05T05:01:54;46.70;;;26.80;;
1765;SDS011;880;52.452;8.656;2022-12-05T05:04:29;46.37;;;26.20;;
1765;SDS011;880;52.452;8.656;2022-12-05T05:07:08;45.27;;;26.13;;
1765;SDS011;880;52.452;8.656;2022-12-05T05:09:37;38.23;;;24.73;;
1765;SDS011;880;52.452;8.656;2022-12-05T05:12:05;45.53;;;25.73;;
1765;SDS011;880;52.452;8.656;2022-12-05T05:14:32;48.17;;;26.00;;
1765;SDS011;880;52.452;8.656;2022-12-05T05:16:59;42.50;;;24.70;;
1765;SDS011;880;52.452;8.656;2022-12-05T05:19:26;43.03;;;26.97;;
1765;SDS011;880;52.452;8.656;2022-12-05T05:21:54;45.07;;;25.90;;
1765;SDS011;880;52.452;8.656;2022-12-05T05:24:21;45.80;;;27.00;;
1765;SDS011;880;52.452;8.656;2022-12-05T05:26:48;50.87;;;28.37;;
1765;SDS011;880;52.452;8.656;2022-12-05T05:29:23;53.43;;;26.73;;
1765;SDS011;880;52.452;8.656;2022-12-05T05:31:50;50.13;;;27.10;;
1765;SDS011;880;52.452;8.656;2022-12-05T05:34:18;49.10;;;28.17;;
1765;SDS011;880;52.452;8.656;2022-12-05T05:36:49;46.63;;;25.37;;
1765;SDS011;880;52.452;8.656;2022-12-05T05:39:18;47.00;;;26.17;;
1765;SDS011;880;52.452;8.656;2022-12-05T05:41:45;51.03;;;25.03;;
1765;SDS011;880;52.452;8.656;2022-12-05T05:44:11;48.33;;;27.80;;
1765;SDS011;880;52.452;8.656;2022-12-05T05:46:38;47.80;;;26.10;;
1765;SDS011;880;52.452;8.656;2022-12-05T05:49:06;46.70;;;25.07;;
1765;SDS011;880;52.452;8.656;2022-12-05T05:51:33;47.93;;;26.30;;
1765;SDS011;880;52.452;8.656;2022-12-05T05:54:00;45.77;;;25.67;;
1765;SDS011;880;52.452;8.656;2022-12-05T05:56:27;49.20;;;26.33;;
1765;SDS011;880;52.452;8.656;2022-12-05T05:58:55;43.43;;;26.20;;
1765;SDS011;880;52.452;8.656;2022-12-05T06:01:25;52.20;;;29.50;;
1765;SDS011;880;52.452;8.656;2022-12-05T06:03:53;45.97;;;28.93;;
1765;SDS011;880;52.452;8.656;2022-12-05T06:06:20;58.30;;;32.20;;
1765;SDS011;880;52.452;8.656;2022-12-05T06:08:48;62.97;;;33.80;;
1765;SDS011;880;52.452;8.656;2022-12-05T06:11:19;61.13;;;31.83;;
1765;SDS011;880;52.452;8.656;2022-12-05T06:13:54;50.63;;;31.20;;
1765;SDS011;880;52.452;8.656;2022-12-05T06:16:23;46.67;;;27.60;;
1765;SDS011;880;52.452;8.656;2022-12-05T06:18:51;47.07;;;26.80;;
1765;SDS011;880;52.452;8.656;2022-12-05T06:21:19;43.27;;;25.90;;
1765;SDS011;880;52.452;8.656;2022-12-05T06:23:46;50.70;;;26.27;;
1765;SDS011;880;52.452;8.656;2022-12-05T06:26:17;43.70;;;26.23;;
1765;SDS011;880;52.452;8.656;2022-12-05T06:28:46;50.63;;;24.20;;
1765;SDS011;880;52.452;8.656;2022-12-05T06:31:18;43.70;;;23.60;;
1765;SDS011;880;52.452;8.656;2022-12-05T06:33:50;46.00;;;26.30;;
1765;SDS011;880;52.452;8.656;2022-12-05T06:36:18;42.57;;;27.07;;
1765;SDS011;880;52.452;8.656;2022-12-05T06:38:47;42.40;;;24.90;;
1765;SDS011;880;52.452;8.656;2022-12-05T06:41:15;41.87;;;25.00;;
1765;SDS011;880;52.452;8.656;2022-12-05T06:43:44;51.03;;;26.40;;
1765;SDS011;880;52.452;8.656;2022-12-05T06:46:12;44.97;;;25.10;;
1765;SDS011;880;52.452;8.656;2022-12-05T06:48:41;42.73;;;25.37;;
1765;SDS011;880;52.452;8.656;2022-12-05T06:51:09;39.13;;;23.40;;
1765;SDS011;880;52.452;8.656;2022-12-05T06:53:38;42.70;;;24.67;;
1765;SDS011;880;52.452;8.656;2022-12-05T06:56:06;43.53;;;23.90;;
1765;SDS011;880;52.452;8.656;2022-12-05T06:58:37;42.90;;;24.20;;
1765;SDS011;880;52.452;8.656;2022-12-05T07:01:04;43.67;;;25.87;;
1765;SDS011;880;52.452;8.656;2022-12-05T07:03:50;36.90;;;23.17;;
1765;SDS011;880;52.452;8.656;2022-12-05T07:06:17;39.97;;;23.87;;
1765;SDS011;880;52.452;8.656;2022-12-05T07:08:44;44.83;;;24.77;;
1765;SDS011;880;52.452;8.656;2022-12-05T07:11:11;44.10;;;25.37;;
1765;SDS011;880;52.452;8.656;2022-12-05T07:13:38;42.30;;;23.73;;
1765;SDS011;880;52.452;8.656;2022-12-05T07:16:05;40.27;;;24.30;;
1765;SDS011;880;52.452;8.656;2022-12-05T07:18:33;39.23;;;24.60;;
1765;SDS011;880;52.452;8.656;2022-12-05T07:21:02;39.07;;;23.47;;
1765;SDS011;880;52.452;8.656;2022-12-05T07:23:38;37.63;;;21.20;;
1765;SDS011;880;52.452;8.656;2022-12-05T07:26:07;36.70;;;22.10;;
1765;SDS011;880;52.452;8.656;2022-12-05T07:28:35;39.50;;;21.40;;
1765;SDS011;880;52.452;8.656;2022-12-05T07:31:03;34.57;;;21.60;;
1765;SDS011;880;52.452;8.656;2022-12-05T07:33:34;41.67;;;22.73;;
1765;SDS011;880;52.452;8.656;2022-12-05T07:36:03;31.50;;;20.50;;
1765;SDS011;880;52.452;8.656;2022-12-05T07:38:39;36.40;;;21.17;;
1765;SDS011;880;52.452;8.656;2022-12-05T07:41:09;36.70;;;20.00;;
1765;SDS011;880;52.452;8.656;2022-12-05T07:43:42;34.20;;;21.07;;
1765;SDS011;880;52.452;8.656;2022-12-05T07:46:09;38.00;;;21.40;;
1765;SDS011;880;52.452;8.656;2022-12-05T07:48:37;35.43;;;20.70;;
1765;SDS011;880;52.452;8.656;2022-12-05T07:51:05;32.60;;;19.83;;
1765;SDS011;880;52.452;8.656;2022-12-05T07:53:33;32.10;;;19.80;;
1765;SDS011;880;52.452;8.656;2022-12-05T07:56:01;37.77;;;20.23;;
1765;SDS011;880;52.452;8.656;2022-12-05T07:58:32;29.67;;;20.63;;
1765;SDS011;880;52.452;8.656;2022-12-05T08:01:13;32.33;;;19.43;;
1765;SDS011;880;52.452;8.656;2022-12-05T08:03:46;32.63;;;20.27;;
1765;SDS011;880;52.452;8.656;2022-12-05T08:06:16;36.90;;;23.37;;
1765;SDS011;880;52.452;8.656;2022-12-05T08:08:46;39.77;;;25.53;;
1765;SDS011;880;52.452;8.656;2022-12-05T08:11:18;44.80;;;25.20;;
1765;SDS011;880;52.452;8.656;2022-12-05T08:13:48;32.50;;;21.57;;
1765;SDS011;880;52.452;8.656;2022-12-05T08:16:16;30.77;;;19.40;;
1765;SDS011;880;52.452;8.656;2022-12-05T08:18:48;27.57;;;18.90;;
1765;SDS011;880;52.452;8.656;2022-12-05T08:21:20;27.70;;;18.80;;
1765;SDS011;880;52.452;8.656;2022-12-05T08:23:47;26.83;;;18.77;;
1765;SDS011;880;52.452;8.656;2022-12-05T08:26:15;29.03;;;17.47;;
1765;SDS011;880;52.452;8.656;2022-12-05T08:28:54;24.90;;;17.57;;
1765;SDS011;880;52.452;8.656;2022-12-05T08:31:27;20.67;;;15.67;;
1765;SDS011;880;52.452;8.656;2022-12-05T08:33:57;28.60;;;17.50;;
1765;SDS011;880;52.452;8.656;2022-12-05T08:36:26;27.00;;;18.30;;
1765;SDS011;880;52.452;8.656;2022-12-05T08:38:55;26.87;;;19.23;;
1765;SDS011;880;52.452;8.656;2022-12-05T08:41:29;22.87;;;15.60;;
1765;SDS011;880;52.452;8.656;2022-12-05T08:43:57;28.23;;;18.03;;
1765;SDS011;880;52.452;8.656;2022-12-05T08:46:29;23.27;;;17.77;;
1765;SDS011;880;52.452;8.656;2022-12-05T08:48:57;26.87;;;17.70;;
1765;SDS011;880;52.452;8.656;2022-12-05T08:51:24;28.73;;;16.67;;
1765;SDS011;880;52.452;8.656;2022-12-05T08:53:51;25.57;;;17.43;;
1765;SDS011;880;52.452;8.656;2022-12-05T08:56:18;23.20;;;16.93;;
1765;SDS011;880;52.452;8.656;2022-12-05T08:58:52;24.73;;;16.90;;
1765;SDS011;880;52.452;8.656;2022-12-05T09:01:30;23.40;;;16.90;;
1765;SDS011;880;52.452;8.656;2022-12-05T09:03:59;26.20;;;18.20;;
1765;SDS011;880;52.452;8.656;2022-12-05T09:06:27;22.43;;;15.80;;
1765;SDS011;880;52.452;8.656;2022-12-05T09:08:56;25.57;;;18.57;;
1765;SDS011;880;52.452;8.656;2022-12-05T09:11:38;25.20;;;17.50;;
1765;SDS011;880;52.452;8.656;2022-12-05T09:14:12;22.53;;;15.20;;
1765;SDS011;880;52.452;8.656;2022-12-05T09:16:39;28.70;;;19.47;;
1765;SDS011;880;52.452;8.656;2022-12-05T09:19:12;31.80;;;21.93;;
1765;SDS011;880;52.452;8.656;2022-12-05T09:21:43;47.60;;;34.03;;
1765;SDS011;880;52.452;8.656;2022-12-05T09:24:10;35.50;;;23.40;;
1765;SDS011;880;52.452;8.656;2022-12-05T09:26:39;28.70;;;24.43;;
1765;SDS011;880;52.452;8.656;2022-12-05T09:29:07;35.10;;;28.80;;
1765;SDS011;880;52.452;8.656;2022-12-05T09:31:42;51.73;;;45.40;;
1765;SDS011;880;52.452;8.656;2022-12-05T09:34:11;32.17;;;27.97;;
1765;SDS011;880;52.452;8.656;2022-12-05T09:36:40;24.90;;;20.50;;
1765;SDS011;880;52.452;8.656;2022-12-05T09:39:08;26.00;;;17.50;;
1765;SDS011;880;52.452;8.656;2022-12-05T09:44:44;23.40;;;17.77;;
1765;SDS011;880;52.452;8.656;2022-12-05T09:47:28;20.43;;;16.43;;
1765;SDS011;880;52.452;8.656;2022-12-05T09:55:43;18.27;;;13.57;;
1765;SDS011;880;52.452;8.656;2022-12-05T10:01:22;19.53;;;15.03;;
1765;SDS011;880;52.452;8.656;2022-12-05T10:12:33;20.43;;;14.33;;
1765;SDS011;880;52.452;8.656;2022-12-05T10:15:34;23.00;;;15.53;;
1765;SDS011;880;52.452;8.656;2022-12-05T10:23:55;20.57;;;15.03;;
1765;SDS011;880;52.452;8.656;2022-12-05T10:26:31;17.93;;;13.23;;
1765;SDS011;880;52.452;8.656;2022-12-05T10:29:13;17.93;;;13.93;;
1765;SDS011;880;52.452;8.656;2022-12-05T10:32:22;19.40;;;15.37;;
1765;SDS011;880;52.452;8.656;2022-12-05T10:35:13;23.27;;;14.33;;
1765;SDS011;880;52.452;8.656;2022-12-05T10:37:54;21.03;;;17.30;;
1765;SDS011;880;52.452;8.656;2022-12-05T10:40:26;19.00;;;15.00;;
1765;SDS011;880;52.452;8.656;2022-12-05T10:43:06;17.70;;;13.80;;
1765;SDS011;880;52.452;8.656;2022-12-05T10:45:44;17.27;;;13.93;;
1765;SDS011;880;52.452;8.656;2022-12-05T10:48:13;18.97;;;14.93;;
1765;SDS011;880;52.452;8.656;2022-12-05T10:50:44;17.37;;;13.30;;
1765;SDS011;880;52.452;8.656;2022-12-05T10:53:16;15.77;;;13.37;;
1765;SDS011;880;52.452;8.656;2022-12-05T10:55:48;16.93;;;14.13;;
1765;SDS011;880;52.452;8.656;2022-12-05T10:58:36;16.40;;;13.30;;
1765;SDS011;880;52.452;8.656;2022-12-05T11:01:07;17.23;;;13.40;;
1765;SDS011;880;52.452;8.656;2022-12-05T11:03:37;17.17;;;13.30;;
1765;SDS011;880;52.452;8.656;2022-12-05T11:06:14;14.87;;;12.30;;
1765;SDS011;880;52.452;8.656;2022-12-05T11:08:50;16.03;;;12.23;;
1765;SDS011;880;52.452;8.656;2022-12-05T11:11:31;15.30;;;12.47;;
1765;SDS011;880;52.452;8.656;2022-12-05T11:20:51;15.60;;;13.00;;
1765;SDS011;880;52.452;8.656;2022-12-05T11:23:24;18.20;;;14.87;;
1765;SDS011;880;52.452;8.656;2022-12-05T11:25:56;18.47;;;15.80;;
1765;SDS011;880;52.452;8.656;2022-12-05T11:28:34;14.70;;;12.90;;
1765;SDS011;880;52.452;8.656;2022-12-05T11:31:18;14.53;;;12.20;;
1765;SDS011;880;52.452;8.656;2022-12-05T11:36:43;15.07;;;13.30;;
1765;SDS011;880;52.452;8.656;2022-12-05T11:39:16;16.63;;;13.13;;
1765;SDS011;880;52.452;8.656;2022-12-05T11:41:54;15.40;;;13.10;;
1765;SDS011;880;52.452;8.656;2022-12-05T11:47:44;16.30;;;12.37;;
1765;SDS011;880;52.452;8.656;2022-12-05T11:56:37;15.27;;;12.60;;
1765;SDS011;880;52.452;8.656;2022-12-05T12:11:02;14.20;;;11.93;;
1765;SDS011;880;52.452;8.656;2022-12-05T12:33:45;16.43;;;13.53;;
1765;SDS011;880;52.452;8.656;2022-12-05T12:36:24;17.20;;;13.43;;
1765;SDS011;880;52.452;8.656;2022-12-05T12:42:27;15.10;;;12.80;;
1765;SDS011;880;52.452;8.656;2022-12-05T12:48:06;13.67;;;12.27;;
1765;SDS011;880;52.452;8.656;2022-12-05T12:51:00;15.63;;;13.10;;
1765;SDS011;880;52.452;8.656;2022-12-05T13:02:41;14.57;;;12.20;;
1765;SDS011;880;52.452;8.656;2022-12-05T13:05:33;14.43;;;12.67;;
1765;SDS011;880;52.452;8.656;2022-12-05T13:08:22;15.10;;;12.40;;
1765;SDS011;880;52.452;8.656;2022-12-05T13:11:16;13.53;;;11.87;;
1765;SDS011;880;52.452;8.656;2022-12-05T13:13:50;14.40;;;12.97;;
1765;SDS011;880;52.452;8.656;2022-12-05T13:16:25;12.83;;;11.50;;
1765;SDS011;880;52.452;8.656;2022-12-05T13:18:58;14.93;;;13.10;;
1765;SDS011;880;52.452;8.656;2022-12-05T13:21:25;16.03;;;14.30;;
1765;SDS011;880;52.452;8.656;2022-12-05T13:23:54;15.10;;;13.53;;
1765;SDS011;880;52.452;8.656;2022-12-05T13:26:29;20.63;;;18.60;;
1765;SDS011;880;52.452;8.656;2022-12-05T13:28:58;12.53;;;11.20;;
1765;SDS011;880;52.452;8.656;2022-12-05T13:31:38;13.03;;;11.77;;
1765;SDS011;880;52.452;8.656;2022-12-05T13:34:34;13.77;;;12.30;;
1765;SDS011;880;52.452;8.656;2022-12-05T13:37:35;16.40;;;14.00;;
1765;SDS011;880;52.452;8.656;2022-12-05T13:40:24;14.00;;;12.50;;
1765;SDS011;880;52.452;8.656;2022-12-05T13:43:18;12.47;;;11.13;;
1765;SDS011;880;52.452;8.656;2022-12-05T13:46:07;15.97;;;12.87;;
1765;SDS011;880;52.452;8.656;2022-12-05T13:48:38;16.37;;;12.77;;
1765;SDS011;880;52.452;8.656;2022-12-05T13:51:12;14.63;;;12.30;;
1765;SDS011;880;52.452;8.656;2022-12-05T13:53:58;15.57;;;13.07;;
1765;SDS011;880;52.452;8.656;2022-12-05T13:56:48;14.57;;;12.97;;
1765;SDS011;880;52.452;8.656;2022-12-05T14:07:46;16.20;;;14.50;;
1765;SDS011;880;52.452;8.656;2022-12-05T14:12:55;15.83;;;13.50;;
1765;SDS011;880;52.452;8.656;2022-12-05T14:15:43;37.20;;;24.97;;
1765;SDS011;880;52.452;8.656;2022-12-05T14:18:13;28.03;;;22.60;;
1765;SDS011;880;52.452;8.656;2022-12-05T14:32:09;13.17;;;11.47;;
1765;SDS011;880;52.452;8.656;2022-12-05T14:37:41;13.20;;;11.80;;
1765;SDS011;880;52.452;8.656;2022-12-05T14:40:23;13.33;;;11.93;;
1765;SDS011;880;52.452;8.656;2022-12-05T14:43:14;14.40;;;12.90;;
1765;SDS011;880;52.452;8.656;2022-12-05T14:50:46;14.03;;;12.27;;
1765;SDS011;880;52.452;8.656;2022-12-05T14:55:46;14.20;;;12.70;;
1765;SDS011;880;52.452;8.656;2022-12-05T14:58:16;14.23;;;12.50;;
1765;SDS011;880;52.452;8.656;2022-12-05T15:00:53;14.80;;;13.30;;
1765;SDS011;880;52.452;8.656;2022-12-05T15:03:36;13.93;;;12.50;;
1765;SDS011;880;52.452;8.656;2022-12-05T15:06:09;15.20;;;13.30;;
1765;SDS011;880;52.452;8.656;2022-12-05T15:08:43;14.47;;;13.07;;
1765;SDS011;880;52.452;8.656;2022-12-05T15:11:18;16.33;;;14.70;;
1765;SDS011;880;52.452;8.656;2022-12-05T15:14:03;20.87;;;18.33;;
1765;SDS011;880;52.452;8.656;2022-12-05T15:16:44;16.03;;;14.43;;
1765;SDS011;880;52.452;8.656;2022-12-05T15:19:21;20.87;;;17.87;;
1765;SDS011;880;52.452;8.656;2022-12-05T15:21:57;20.23;;;16.73;;
1765;SDS011;880;52.452;8.656;2022-12-05T15:24:35;14.97;;;13.57;;
1765;SDS011;880;52.452;8.656;2022-12-05T15:27:04;16.80;;;15.20;;
1765;SDS011;880;52.452;8.656;2022-12-05T15:29:37;17.73;;;15.93;;
1765;SDS011;880;52.452;8.656;2022-12-05T15:37:45;14.57;;;13.13;;
1765;SDS011;880;52.452;8.656;2022-12-05T15:40:36;20.30;;;17.10;;
1765;SDS011;880;52.452;8.656;2022-12-05T15:46:06;15.43;;;13.40;;
1765;SDS011;880;52.452;8.656;2022-12-05T15:48:46;19.83;;;12.93;;
1765;SDS011;880;52.452;8.656;2022-12-05T15:51:13;23.50;;;15.27;;
1765;SDS011;880;52.452;8.656;2022-12-05T15:56:41;23.67;;;16.47;;
1765;SDS011;880;52.452;8.656;2022-12-05T15:59:31;18.63;;;15.03;;
1765;SDS011;880;52.452;8.656;2022-12-05T16:02:10;20.73;;;17.70;;
1765;SDS011;880;52.452;8.656;2022-12-05T16:04:48;22.10;;;19.07;;
1765;SDS011;880;52.452;8.656;2022-12-05T16:07:22;17.50;;;15.57;;
1765;SDS011;880;52.452;8.656;2022-12-05T16:09:54;14.43;;;13.03;;
1765;SDS011;880;52.452;8.656;2022-12-05T16:12:25;13.63;;;11.60;;
1765;SDS011;880;52.452;8.656;2022-12-05T16:15:00;13.37;;;11.20;;
1765;SDS011;880;52.452;8.656;2022-12-05T16:17:39;13.90;;;12.50;;
1765;SDS011;880;52.452;8.656;2022-12-05T16:22:55;16.50;;;13.43;;
1765;SDS011;880;52.452;8.656;2022-12-05T16:25:32;14.70;;;12.53;;
1765;SDS011;880;52.452;8.656;2022-12-05T16:30:34;14.40;;;12.90;;
1765;SDS011;880;52.452;8.656;2022-12-05T16:33:04;14.50;;;13.03;;
1765;SDS011;880;52.452;8.656;2022-12-05T16:35:39;14.10;;;12.47;;
1765;SDS011;880;52.452;8.656;2022-12-05T16:48:43;15.60;;;14.00;;
1765;SDS011;880;52.452;8.656;2022-12-05T16:51:19;14.50;;;13.10;;
1765;SDS011;880;52.452;8.656;2022-12-05T16:53:51;13.47;;;11.70;;
1765;SDS011;880;52.452;8.656;2022-12-05T16:56:24;14.13;;;12.00;;
1765;SDS011;880;52.452;8.656;2022-12-05T16:58:54;14.10;;;12.67;;
1765;SDS011;880;52.452;8.656;2022-12-05T17:01:23;14.67;;;12.23;;
1765;SDS011;880;52.452;8.656;2022-12-05T17:03:52;19.10;;;16.10;;
1765;SDS011;880;52.452;8.656;2022-12-05T17:06:21;17.37;;;15.50;;
1765;SDS011;880;52.452;8.656;2022-12-05T17:08:50;14.20;;;12.80;;
1765;SDS011;880;52.452;8.656;2022-12-05T17:11:19;15.63;;;14.13;;
1765;SDS011;880;52.452;8.656;2022-12-05T17:13:53;17.10;;;14.43;;
1765;SDS011;880;52.452;8.656;2022-12-05T17:16:22;16.63;;;13.83;;
1765;SDS011;880;52.452;8.656;2022-12-05T17:18:52;16.40;;;14.27;;
1765;SDS011;880;52.452;8.656;2022-12-05T17:21:23;14.73;;;13.13;;
1765;SDS011;880;52.452;8.656;2022-12-05T17:23:52;15.60;;;14.00;;
1765;SDS011;880;52.452;8.656;2022-12-05T17:26:19;17.40;;;15.20;;
1765;SDS011;880;52.452;8.656;2022-12-05T17:28:48;18.07;;;15.23;;
1765;SDS011;880;52.452;8.656;2022-12-05T17:31:16;33.53;;;26.53;;
1765;SDS011;880;52.452;8.656;2022-12-05T17:33:49;23.80;;;20.07;;
1765;SDS011;880;52.452;8.656;2022-12-05T17:36:19;17.30;;;15.30;;
1765;SDS011;880;52.452;8.656;2022-12-05T17:38:46;17.03;;;15.33;;
1765;SDS011;880;52.452;8.656;2022-12-05T17:41:18;17.23;;;15.23;;
1765;SDS011;880;52.452;8.656;2022-12-05T17:43:48;18.23;;;15.27;;
1765;SDS011;880;52.452;8.656;2022-12-05T17:46:17;21.80;;;19.50;;
1765;SDS011;880;52.452;8.656;2022-12-05T17:48:46;22.90;;;19.30;;
1765;SDS011;880;52.452;8.656;2022-12-05T17:51:14;20.73;;;17.80;;
1765;SDS011;880;52.452;8.656;2022-12-05T17:53:41;17.23;;;15.43;;
1765;SDS011;880;52.452;8.656;2022-12-05T17:56:10;16.97;;;15.13;;
1765;SDS011;880;52.452;8.656;2022-12-05T17:58:39;16.33;;;14.60;;
1765;SDS011;880;52.452;8.656;2022-12-05T18:01:08;16.90;;;13.57;;
1765;SDS011;880;52.452;8.656;2022-12-05T18:03:41;20.43;;;15.63;;
1765;SDS011;880;52.452;8.656;2022-12-05T18:06:09;16.10;;;13.77;;
1765;SDS011;880;52.452;8.656;2022-12-05T18:08:36;14.80;;;13.00;;
1765;SDS011;880;52.452;8.656;2022-12-05T18:11:05;17.10;;;13.30;;
1765;SDS011;880;52.452;8.656;2022-12-05T18:13:32;16.63;;;13.87;;
1765;SDS011;880;52.452;8.656;2022-12-05T18:15:59;16.37;;;13.77;;
1765;SDS011;880;52.452;8.656;2022-12-05T18:18:27;16.20;;;13.40;;
1765;SDS011;880;52.452;8.656;2022-12-05T18:23:35;17.93;;;15.27;;
1765;SDS011;880;52.452;8.656;2022-12-05T18:26:04;16.13;;;13.30;;
1765;SDS011;880;52.452;8.656;2022-12-05T18:28:33;15.97;;;14.17;;
1765;SDS011;880;52.452;8.656;2022-12-05T18:31:09;18.17;;;16.00;;
1765;SDS011;880;52.452;8.656;2022-12-05T18:33:41;18.70;;;14.00;;
1765;SDS011;880;52.452;8.656;2022-12-05T18:36:11;17.40;;;14.67;;
1765;SDS011;880;52.452;8.656;2022-12-05T18:38:41;15.50;;;13.50;;
1765;SDS011;880;52.452;8.656;2022-12-05T18:41:15;15.40;;;13.23;;
1765;SDS011;880;52.452;8.656;2022-12-05T18:43:42;21.00;;;18.43;;
1765;SDS011;880;52.452;8.656;2022-12-05T18:46:09;22.47;;;17.80;;
1765;SDS011;880;52.452;8.656;2022-12-05T18:48:36;28.10;;;22.00;;
1765;SDS011;880;52.452;8.656;2022-12-05T18:51:11;24.43;;;18.97;;